SPKLO EPZR-EPNL
Flight info
| Callsign | SPKLO |
|---|---|
| Flight time | N/A |
| Altitude | 3500 |
| Route | DCT EPZRM DCT EPZRP DCT EPZRK DCT EPKKR DCT EPKKS DCT EPKKK DCT AEPKK DCT EPKKK DCT EPKKS DCT EPKKD DCT |
| Aircraft | C172/L-SFDY/C |
Departure
| Time | 2026-04-18 17:38 |
|---|---|
| Airport | Żar Airfield (EPZR) |
Arrival
| Time | N/A |
|---|---|
| Airport | Nowy Sącz-Łososina Dolna Airfield (EPNL) |
| Time | Latitude | Longitude | Altitude | Speed | Heading |
|---|---|---|---|---|---|
| 2026-04-18 17:31 | 49.77160 | 19.22056 | 1253 ft | 0 kts | 3° |
| 2026-04-18 17:34 | 49.77162 | 19.22056 | 1254 ft | 0 kts | 359° |
| 2026-04-18 17:35 | 49.77161 | 19.22052 | 1254 ft | 5 kts | 313° |
| 2026-04-18 17:35 | 49.77200 | 19.22041 | 1260 ft | 2 kts | 358° |
| 2026-04-18 17:35 | 49.77211 | 19.21999 | 1250 ft | 11 kts | 282° |
| 2026-04-18 17:35 | 49.77206 | 19.21984 | 1248 ft | 0 kts | 227° |
| 2026-04-18 17:36 | 49.77190 | 19.21957 | 1247 ft | 20 kts | 227° |
| 2026-04-18 17:36 | 49.76963 | 19.21569 | 1211 ft | 72 kts | 228° |
| 2026-04-18 17:37 | 49.76660 | 19.21021 | 1402 ft | 67 kts | 259° |
| 2026-04-18 17:37 | 49.76768 | 19.20295 | 1527 ft | 70 kts | 307° |
| 2026-04-18 17:37 | 49.77273 | 19.19995 | 1556 ft | 92 kts | 350° |
| 2026-04-18 17:37 | 49.77895 | 19.19655 | 1700 ft | 94 kts | 340° |
| 2026-04-18 17:38 | 49.78537 | 19.19251 | 1761 ft | 103 kts | 336° |
| 2026-04-18 17:38 | 49.79205 | 19.19303 | 1912 ft | 96 kts | 26° |
| 2026-04-18 17:38 | 49.79760 | 19.19794 | 2047 ft | 97 kts | 36° |
| 2026-04-18 17:38 | 49.80282 | 19.20541 | 2045 ft | 105 kts | 40° |
| 2026-04-18 17:39 | 49.80844 | 19.21235 | 2157 ft | 102 kts | 38° |
| 2026-04-18 17:39 | 49.81430 | 19.21839 | 2258 ft | 101 kts | 19° |
| 2026-04-18 17:39 | 49.82114 | 19.22065 | 2349 ft | 101 kts | 10° |
| 2026-04-18 17:39 | 49.82809 | 19.22190 | 2438 ft | 101 kts | 6° |
| 2026-04-18 17:40 | 49.83503 | 19.22175 | 2526 ft | 100 kts | 354° |
| 2026-04-18 17:40 | 49.84198 | 19.22076 | 2606 ft | 101 kts | 355° |
| 2026-04-18 17:40 | 49.84896 | 19.21981 | 2681 ft | 100 kts | 354° |
| 2026-04-18 17:40 | 49.85587 | 19.21884 | 2767 ft | 100 kts | 355° |
| 2026-04-18 17:41 | 49.86253 | 19.22048 | 2826 ft | 101 kts | 37° |
| 2026-04-18 17:41 | 49.86765 | 19.22797 | 2901 ft | 101 kts | 40° |
| 2026-04-18 17:41 | 49.87219 | 19.23640 | 2979 ft | 103 kts | 53° |
| 2026-04-18 17:41 | 49.87609 | 19.24599 | 3008 ft | 108 kts | 56° |
| 2026-04-18 17:42 | 49.88014 | 19.25600 | 3012 ft | 111 kts | 55° |
| 2026-04-18 17:42 | 49.88428 | 19.26621 | 3020 ft | 112 kts | 56° |
| 2026-04-18 17:42 | 49.88846 | 19.27652 | 3019 ft | 113 kts | 56° |
| 2026-04-18 17:42 | 49.89269 | 19.28684 | 3020 ft | 113 kts | 55° |
| 2026-04-18 17:43 | 49.89689 | 19.29711 | 3022 ft | 112 kts | 55° |
| 2026-04-18 17:43 | 49.90105 | 19.30723 | 3022 ft | 113 kts | 55° |
| 2026-04-18 17:43 | 49.90528 | 19.31748 | 3021 ft | 113 kts | 55° |
| 2026-04-18 17:43 | 49.90952 | 19.32771 | 3018 ft | 113 kts | 55° |
| 2026-04-18 17:44 | 49.91381 | 19.33807 | 2991 ft | 115 kts | 55° |
| 2026-04-18 17:44 | 49.91698 | 19.34952 | 2964 ft | 117 kts | 75° |
| 2026-04-18 17:44 | 49.91782 | 19.35800 | 2960 ft | 118 kts | 79° |
| 2026-04-18 17:44 | 49.91862 | 19.37058 | 2955 ft | 117 kts | 83° |
| 2026-04-18 17:45 | 49.91900 | 19.38320 | 2955 ft | 117 kts | 88° |
| 2026-04-18 17:45 | 49.91894 | 19.39584 | 2953 ft | 117 kts | 88° |
| 2026-04-18 17:45 | 49.91890 | 19.40849 | 2952 ft | 117 kts | 88° |
| 2026-04-18 17:45 | 49.91884 | 19.42117 | 2951 ft | 117 kts | 88° |
| 2026-04-18 17:46 | 49.91880 | 19.43364 | 2950 ft | 117 kts | 88° |
| 2026-04-18 17:46 | 49.91875 | 19.44623 | 2945 ft | 116 kts | 88° |
| 2026-04-18 17:46 | 49.91873 | 19.45874 | 2946 ft | 116 kts | 88° |
| 2026-04-18 17:46 | 49.91867 | 19.47131 | 2945 ft | 117 kts | 88° |
| 2026-04-18 17:47 | 49.91860 | 19.48387 | 2946 ft | 117 kts | 88° |
| 2026-04-18 17:47 | 49.91854 | 19.49646 | 2946 ft | 116 kts | 88° |
| 2026-04-18 17:47 | 49.91850 | 19.50904 | 2944 ft | 117 kts | 88° |
| 2026-04-18 17:47 | 49.91847 | 19.52163 | 2945 ft | 116 kts | 87° |
| 2026-04-18 17:48 | 49.91942 | 19.53408 | 2944 ft | 116 kts | 79° |
| 2026-04-18 17:48 | 49.92065 | 19.54648 | 2941 ft | 116 kts | 79° |
| 2026-04-18 17:48 | 49.92196 | 19.55890 | 2943 ft | 116 kts | 76° |
| 2026-04-18 17:48 | 49.92362 | 19.57114 | 2942 ft | 116 kts | 76° |
| 2026-04-18 17:49 | 49.92530 | 19.58337 | 2939 ft | 116 kts | 76° |
| 2026-04-18 17:49 | 49.92695 | 19.59547 | 2937 ft | 114 kts | 76° |
| 2026-04-18 17:49 | 49.92884 | 19.60725 | 2939 ft | 115 kts | 72° |
| 2026-04-18 17:49 | 49.93092 | 19.61918 | 2941 ft | 114 kts | 72° |
| 2026-04-18 17:50 | 49.93298 | 19.63111 | 2941 ft | 114 kts | 73° |
| 2026-04-18 17:50 | 49.93501 | 19.64297 | 2939 ft | 113 kts | 73° |
| 2026-04-18 17:50 | 49.93705 | 19.65483 | 2938 ft | 114 kts | 72° |
| 2026-04-18 17:50 | 49.93907 | 19.66663 | 2937 ft | 113 kts | 72° |
| 2026-04-18 17:51 | 49.94111 | 19.67843 | 2933 ft | 113 kts | 72° |
| 2026-04-18 17:51 | 49.94312 | 19.69016 | 2933 ft | 113 kts | 72° |
| 2026-04-18 17:51 | 49.94514 | 19.70193 | 2933 ft | 113 kts | 72° |
| 2026-04-18 17:51 | 49.94716 | 19.71361 | 2928 ft | 112 kts | 72° |
| 2026-04-18 17:52 | 49.94919 | 19.72527 | 2932 ft | 112 kts | 72° |
| 2026-04-18 17:52 | 49.95125 | 19.73691 | 2930 ft | 112 kts | 70° |
| 2026-04-18 17:52 | 49.95398 | 19.74812 | 2930 ft | 110 kts | 66° |
| 2026-04-18 17:52 | 49.95676 | 19.75928 | 2931 ft | 111 kts | 66° |
| 2026-04-18 17:53 | 49.95956 | 19.77049 | 2928 ft | 111 kts | 66° |
| 2026-04-18 17:53 | 49.96235 | 19.78170 | 2928 ft | 112 kts | 66° |
| 2026-04-18 17:53 | 49.96513 | 19.79281 | 2927 ft | 112 kts | 66° |
| 2026-04-18 17:53 | 49.96793 | 19.80404 | 2929 ft | 112 kts | 66° |
| 2026-04-18 17:54 | 49.97149 | 19.81459 | 2927 ft | 110 kts | 43° |
| 2026-04-18 17:54 | 49.97673 | 19.82241 | 2831 ft | 101 kts | 43° |
| 2026-04-18 17:54 | 49.98155 | 19.82978 | 2699 ft | 95 kts | 42° |
| 2026-04-18 17:54 | 49.98667 | 19.83594 | 2555 ft | 93 kts | 11° |
| 2026-04-18 17:55 | 49.99307 | 19.83694 | 2432 ft | 93 kts | 6° |
| 2026-04-18 17:55 | 49.99936 | 19.83722 | 2299 ft | 84 kts | 346° |
| 2026-04-18 17:55 | 50.00443 | 19.83467 | 2163 ft | 71 kts | 341° |
| 2026-04-18 17:55 | 50.00871 | 19.83171 | 2020 ft | 65 kts | 330° |
| 2026-04-18 17:56 | 50.01273 | 19.82798 | 2008 ft | 79 kts | 330° |
| 2026-04-18 17:56 | 50.01826 | 19.82302 | 1994 ft | 101 kts | 331° |
| 2026-04-18 17:56 | 50.02858 | 19.81369 | 1886 ft | 81 kts | 331° |
| 2026-04-18 17:57 | 50.03350 | 19.80916 | 1887 ft | 83 kts | 331° |
| 2026-04-18 17:57 | 50.04361 | 19.79984 | 1888 ft | 85 kts | 331° |
| 2026-04-18 17:58 | 50.05257 | 19.78841 | 1871 ft | 90 kts | 279° |
| 2026-04-18 17:58 | 50.05045 | 19.76802 | 1793 ft | 96 kts | 258° |
| 2026-04-18 17:59 | 50.04180 | 19.76884 | 1743 ft | 91 kts | 102° |
| 2026-04-18 17:59 | 50.04271 | 19.77840 | 1709 ft | 90 kts | 66° |
| 2026-04-18 17:59 | 50.04776 | 19.79592 | 1693 ft | 88 kts | 78° |
| 2026-04-18 18:00 | 50.05074 | 19.80390 | 1625 ft | 92 kts | 21° |
| 2026-04-18 18:00 | 50.05198 | 19.78935 | 1564 ft | 100 kts | 248° |
| 2026-04-18 18:01 | 50.04499 | 19.77225 | 1636 ft | 86 kts | 195° |
| 2026-04-18 18:01 | 50.03596 | 19.78050 | 1496 ft | 93 kts | 71° |
| 2026-04-18 18:02 | 50.04155 | 19.79868 | 1415 ft | 93 kts | 59° |
| 2026-04-18 18:02 | 50.05135 | 19.80729 | 1353 ft | 95 kts | 336° |
| 2026-04-18 18:02 | 50.05502 | 19.79951 | 1399 ft | 92 kts | 277° |
| 2026-04-18 18:03 | 50.04979 | 19.78157 | 1415 ft | 93 kts | 231° |
| 2026-04-18 18:03 | 50.04543 | 19.77362 | 1375 ft | 95 kts | 227° |
| 2026-04-18 18:04 | 50.03552 | 19.77784 | 1393 ft | 86 kts | 122° |
| 2026-04-18 18:04 | 50.03620 | 19.78603 | 1379 ft | 85 kts | 39° |
| 2026-04-18 18:04 | 50.04520 | 19.79923 | 1265 ft | 91 kts | 52° |
| 2026-04-18 18:05 | 50.05478 | 19.80313 | 1393 ft | 85 kts | 325° |
| 2026-04-18 18:05 | 50.05689 | 19.79463 | 1397 ft | 90 kts | 261° |
| 2026-04-18 18:05 | 50.05414 | 19.78585 | 1405 ft | 90 kts | 234° |
| 2026-04-18 18:06 | 50.04584 | 19.77139 | 1459 ft | 87 kts | 220° |
| 2026-04-18 18:06 | 50.04073 | 19.76729 | 1446 ft | 85 kts | 162° |
| 2026-04-18 18:06 | 50.03580 | 19.77246 | 1376 ft | 90 kts | 130° |
| 2026-04-18 18:07 | 50.03565 | 19.78114 | 1230 ft | 99 kts | 51° |
| 2026-04-18 18:07 | 50.03958 | 19.78895 | 1314 ft | 85 kts | 55° |
| 2026-04-18 18:07 | 50.04575 | 19.80470 | 1339 ft | 82 kts | 62° |
| 2026-04-18 18:08 | 50.04916 | 19.81219 | 1301 ft | 89 kts | 39° |
| 2026-04-18 18:08 | 50.05466 | 19.81009 | 1304 ft | 93 kts | 316° |
| 2026-04-18 18:08 | 50.05847 | 19.80240 | 1355 ft | 91 kts | 296° |
| 2026-04-18 18:08 | 50.05726 | 19.79337 | 1381 ft | 90 kts | 229° |
| 2026-04-18 18:09 | 50.05201 | 19.79356 | 1319 ft | 86 kts | 114° |
| 2026-04-18 18:09 | 50.05509 | 19.79985 | 1276 ft | 88 kts | 8° |
| 2026-04-18 18:09 | 50.06019 | 19.80350 | 1303 ft | 85 kts | 52° |
| 2026-04-18 18:09 | 50.06221 | 19.81233 | 1269 ft | 88 kts | 76° |
| 2026-04-18 18:10 | 50.06389 | 19.82148 | 1297 ft | 88 kts | 72° |
| 2026-04-18 18:10 | 50.06593 | 19.83062 | 1292 ft | 90 kts | 69° |
| 2026-04-18 18:10 | 50.07014 | 19.83746 | 1271 ft | 94 kts | 14° |
| 2026-04-18 18:10 | 50.07646 | 19.83565 | 1306 ft | 92 kts | 334° |
| 2026-04-18 18:11 | 50.08040 | 19.82756 | 1248 ft | 100 kts | 296° |
| 2026-04-18 18:11 | 50.08202 | 19.81714 | 1077 ft | 96 kts | 267° |
| 2026-04-18 18:11 | 50.08102 | 19.80810 | 966 ft | 76 kts | 256° |
| 2026-04-18 18:11 | 50.07992 | 19.80059 | 842 ft | 70 kts | 259° |
| 2026-04-18 18:12 | 50.07891 | 19.79351 | 802 ft | 69 kts | 256° |
| 2026-04-18 18:12 | 50.07763 | 19.78464 | 837 ft | 96 kts | 256° |
| 2026-04-18 18:12 | 50.07611 | 19.77391 | 937 ft | 105 kts | 257° |
| 2026-04-18 18:12 | 50.07457 | 19.76253 | 1046 ft | 110 kts | 258° |
| 2026-04-18 18:13 | 50.07087 | 19.75270 | 1147 ft | 106 kts | 208° |
| 2026-04-18 18:13 | 50.06407 | 19.75034 | 1242 ft | 96 kts | 186° |
| 2026-04-18 18:13 | 50.05764 | 19.75014 | 1339 ft | 90 kts | 162° |
| 2026-04-18 18:13 | 50.05497 | 19.75735 | 1431 ft | 82 kts | 89° |
| 2026-04-18 18:14 | 50.05611 | 19.76598 | 1527 ft | 82 kts | 71° |
| 2026-04-18 18:14 | 50.05759 | 19.77463 | 1631 ft | 83 kts | 73° |
| 2026-04-18 18:14 | 50.05866 | 19.78297 | 1735 ft | 70 kts | 78° |
| 2026-04-18 18:14 | 50.05937 | 19.78970 | 1838 ft | 61 kts | 76° |
| 2026-04-18 18:15 | 50.06002 | 19.79684 | 1843 ft | 68 kts | 77° |
| 2026-04-18 18:15 | 50.06073 | 19.80420 | 1798 ft | 68 kts | 78° |
| 2026-04-18 18:15 | 50.06169 | 19.81116 | 1741 ft | 61 kts | 73° |
| 2026-04-18 18:15 | 50.06259 | 19.81686 | 1689 ft | 52 kts | 73° |
| 2026-04-18 18:16 | 50.06345 | 19.82240 | 1639 ft | 53 kts | 73° |
| 2026-04-18 18:16 | 50.06440 | 19.82811 | 1592 ft | 56 kts | 75° |
| 2026-04-18 18:16 | 50.06516 | 19.83415 | 1541 ft | 58 kts | 76° |
| 2026-04-18 18:16 | 50.06601 | 19.84017 | 1484 ft | 57 kts | 75° |
| 2026-04-18 18:17 | 50.06686 | 19.84606 | 1441 ft | 55 kts | 76° |
| 2026-04-18 18:17 | 50.06769 | 19.85172 | 1383 ft | 52 kts | 75° |
| 2026-04-18 18:17 | 50.06854 | 19.85704 | 1336 ft | 54 kts | 74° |
| 2026-04-18 18:17 | 50.06952 | 19.86356 | 1281 ft | 70 kts | 76° |
| 2026-04-18 18:18 | 50.07088 | 19.87170 | 1224 ft | 82 kts | 74° |
| 2026-04-18 18:18 | 50.07537 | 19.87565 | 1200 ft | 82 kts | 349° |
| 2026-04-18 18:18 | 50.08089 | 19.87423 | 1269 ft | 81 kts | 354° |
| 2026-04-18 18:18 | 50.08641 | 19.87198 | 1346 ft | 83 kts | 339° |
| 2026-04-18 18:19 | 50.08899 | 19.86452 | 1424 ft | 88 kts | 258° |
| 2026-04-18 18:19 | 50.08741 | 19.85462 | 1462 ft | 102 kts | 256° |
| 2026-04-18 18:19 | 50.08580 | 19.84329 | 1470 ft | 115 kts | 258° |
| 2026-04-18 18:19 | 50.08402 | 19.83050 | 1309 ft | 123 kts | 258° |
| 2026-04-18 18:20 | 50.08233 | 19.81781 | 1133 ft | 112 kts | 259° |
| 2026-04-18 18:20 | 50.08092 | 19.80663 | 966 ft | 98 kts | 258° |
| 2026-04-18 18:20 | 50.07944 | 19.79668 | 813 ft | 89 kts | 257° |
| 2026-04-18 18:20 | 50.07818 | 19.78808 | 798 ft | 74 kts | 257° |
| 2026-04-18 18:21 | 50.07736 | 19.78191 | 794 ft | 34 kts | 256° |
| 2026-04-18 18:21 | 50.07639 | 19.78094 | 794 ft | 16 kts | 185° |
| 2026-04-18 18:21 | 50.07561 | 19.78086 | 795 ft | 9 kts | 184° |
| 2026-04-18 18:21 | 50.07511 | 19.78081 | 795 ft | 0 kts | 183° |
| 2026-04-18 18:22 | 50.07509 | 19.78081 | 795 ft | 4 kts | 182° |
| 2026-04-18 18:23 | 50.07483 | 19.78216 | 795 ft | 25 kts | 79° |
| 2026-04-18 18:23 | 50.07525 | 19.78539 | 795 ft | 29 kts | 77° |
| 2026-04-18 18:23 | 50.07564 | 19.78804 | 795 ft | 21 kts | 77° |
| 2026-04-18 18:23 | 50.07590 | 19.79005 | 795 ft | 17 kts | 77° |
| 2026-04-18 18:24 | 50.07642 | 19.79122 | 795 ft | 13 kts | 354° |
| 2026-04-18 18:24 | 50.07721 | 19.79098 | 795 ft | 10 kts | 348° |
| 2026-04-18 18:24 | 50.07738 | 19.79092 | 795 ft | 0 kts | 348° |
| 2026-04-18 18:25 | 50.07764 | 19.79084 | 795 ft | 11 kts | 348° |
| 2026-04-18 18:25 | 50.07845 | 19.79001 | 796 ft | 17 kts | 258° |
| 2026-04-18 18:25 | 50.07787 | 19.78561 | 796 ft | 68 kts | 259° |
| 2026-04-18 18:25 | 50.07648 | 19.77691 | 833 ft | 96 kts | 253° |
| 2026-04-18 18:26 | 50.07474 | 19.76611 | 905 ft | 107 kts | 256° |
| 2026-04-18 18:26 | 50.07115 | 19.75636 | 1007 ft | 108 kts | 203° |
| 2026-04-18 18:26 | 50.06448 | 19.75861 | 1113 ft | 99 kts | 140° |
| 2026-04-18 18:26 | 50.05979 | 19.76575 | 1211 ft | 94 kts | 129° |
| 2026-04-18 18:27 | 50.05548 | 19.77317 | 1308 ft | 91 kts | 129° |
| 2026-04-18 18:27 | 50.05121 | 19.78042 | 1405 ft | 90 kts | 129° |
| 2026-04-18 18:27 | 50.04698 | 19.78764 | 1503 ft | 90 kts | 129° |
| 2026-04-18 18:27 | 50.04311 | 19.79423 | 1593 ft | 69 kts | 129° |
| 2026-04-18 18:28 | 50.03986 | 19.79967 | 1693 ft | 76 kts | 134° |
| 2026-04-18 18:28 | 50.03495 | 19.80467 | 1801 ft | 91 kts | 144° |
| 2026-04-18 18:28 | 50.02928 | 19.80992 | 1899 ft | 97 kts | 151° |
| 2026-04-18 18:28 | 50.02326 | 19.81481 | 1984 ft | 98 kts | 150° |
| 2026-04-18 18:29 | 50.01698 | 19.81916 | 2065 ft | 100 kts | 158° |
| 2026-04-18 18:29 | 50.01046 | 19.82311 | 2138 ft | 101 kts | 157° |
| 2026-04-18 18:29 | 50.00388 | 19.82706 | 2217 ft | 102 kts | 157° |
| 2026-04-18 18:29 | 49.99706 | 19.83121 | 2185 ft | 111 kts | 157° |
| 2026-04-18 18:30 | 49.98969 | 19.83574 | 2141 ft | 116 kts | 157° |
| 2026-04-18 18:30 | 49.98410 | 19.84383 | 2092 ft | 114 kts | 101° |
| 2026-04-18 18:30 | 49.98304 | 19.85594 | 2048 ft | 114 kts | 95° |
| 2026-04-18 18:30 | 49.98195 | 19.86815 | 2003 ft | 114 kts | 95° |
| 2026-04-18 18:31 | 49.98088 | 19.88038 | 1978 ft | 113 kts | 95° |
| 2026-04-18 18:31 | 49.97984 | 19.89238 | 1980 ft | 111 kts | 95° |
| 2026-04-18 18:31 | 49.97880 | 19.90427 | 1979 ft | 111 kts | 95° |
| 2026-04-18 18:31 | 49.97793 | 19.91618 | 1980 ft | 111 kts | 90° |
| 2026-04-18 18:32 | 49.97759 | 19.92810 | 1974 ft | 111 kts | 90° |
| 2026-04-18 18:32 | 49.97756 | 19.93191 | 1979 ft | 110 kts | 86° |